sensor_id;sensor_type;location;lat;lon;timestamp;temperature;humidity
15900;DHT22;8048;50.644;6.184;2024-01-30T00:01:19;9.10;99.90
15900;DHT22;8048;50.644;6.184;2024-01-30T00:03:45;9.10;99.90
15900;DHT22;8048;50.644;6.184;2024-01-30T00:06:11;9.20;99.90
15900;DHT22;8048;50.644;6.184;2024-01-30T00:08:37;9.20;99.90
15900;DHT22;8048;50.644;6.184;2024-01-30T00:11:03;9.20;99.90
15900;DHT22;8048;50.644;6.184;2024-01-30T00:13:28;9.20;99.90
15900;DHT22;8048;50.644;6.184;2024-01-30T00:15:54;9.20;99.90
15900;DHT22;8048;50.644;6.184;2024-01-30T00:18:19;9.20;99.90
15900;DHT22;8048;50.644;6.184;2024-01-30T00:20:45;9.20;99.90
15900;DHT22;8048;50.644;6.184;2024-01-30T00:23:10;9.20;99.90
15900;DHT22;8048;50.644;6.184;2024-01-30T00:25:36;9.20;99.90
15900;DHT22;8048;50.644;6.184;2024-01-30T00:28:02;9.10;99.90
15900;DHT22;8048;50.644;6.184;2024-01-30T00:30:27;9.10;99.90
15900;DHT22;8048;50.644;6.184;2024-01-30T00:32:53;9.10;99.90
15900;DHT22;8048;50.644;6.184;2024-01-30T00:35:19;9.00;99.90
15900;DHT22;8048;50.644;6.184;2024-01-30T00:37:45;8.90;99.90
15900;DHT22;8048;50.644;6.184;2024-01-30T00:40:10;9.00;99.90
15900;DHT22;8048;50.644;6.184;2024-01-30T00:42:41;9.00;99.90
15900;DHT22;8048;50.644;6.184;2024-01-30T00:45:12;9.10;99.90
15900;DHT22;8048;50.644;6.184;2024-01-30T00:47:37;9.10;99.90
15900;DHT22;8048;50.644;6.184;2024-01-30T00:50:03;9.00;99.90
15900;DHT22;8048;50.644;6.184;2024-01-30T00:52:29;9.10;99.90
15900;DHT22;8048;50.644;6.184;2024-01-30T00:54:54;9.10;99.90
15900;DHT22;8048;50.644;6.184;2024-01-30T00:57:20;9.20;99.90
15900;DHT22;8048;50.644;6.184;2024-01-30T00:59:45;9.10;99.90
15900;DHT22;8048;50.644;6.184;2024-01-30T01:02:11;9.20;99.90
15900;DHT22;8048;50.644;6.184;2024-01-30T01:04:36;9.20;99.90
15900;DHT22;8048;50.644;6.184;2024-01-30T01:07:02;9.20;99.90
15900;DHT22;8048;50.644;6.184;2024-01-30T01:09:27;9.20;99.90
15900;DHT22;8048;50.644;6.184;2024-01-30T01:11:53;9.20;99.90
15900;DHT22;8048;50.644;6.184;2024-01-30T01:14:18;9.10;99.90
15900;DHT22;8048;50.644;6.184;2024-01-30T01:16:44;9.10;99.90
15900;DHT22;8048;50.644;6.184;2024-01-30T01:19:09;9.00;99.90
15900;DHT22;8048;50.644;6.184;2024-01-30T01:21:35;9.10;99.90
15900;DHT22;8048;50.644;6.184;2024-01-30T01:24:00;9.00;99.90
15900;DHT22;8048;50.644;6.184;2024-01-30T01:26:26;9.00;99.90
15900;DHT22;8048;50.644;6.184;2024-01-30T01:28:52;9.10;99.90
15900;DHT22;8048;50.644;6.184;2024-01-30T01:31:17;9.00;99.90
15900;DHT22;8048;50.644;6.184;2024-01-30T01:33:43;9.00;99.90
15900;DHT22;8048;50.644;6.184;2024-01-30T01:36:08;9.10;99.90
15900;DHT22;8048;50.644;6.184;2024-01-30T01:38:34;9.20;99.90
15900;DHT22;8048;50.644;6.184;2024-01-30T01:40:59;9.10;99.90
15900;DHT22;8048;50.644;6.184;2024-01-30T01:43:25;9.00;99.90
15900;DHT22;8048;50.644;6.184;2024-01-30T01:45:51;9.00;99.90
15900;DHT22;8048;50.644;6.184;2024-01-30T01:48:16;9.00;99.90
15900;DHT22;8048;50.644;6.184;2024-01-30T01:50:42;9.00;99.90
15900;DHT22;8048;50.644;6.184;2024-01-30T01:53:08;8.90;99.90
15900;DHT22;8048;50.644;6.184;2024-01-30T01:55:35;8.90;99.90
15900;DHT22;8048;50.644;6.184;2024-01-30T01:58:01;8.90;99.90
15900;DHT22;8048;50.644;6.184;2024-01-30T02:00:26;8.90;99.90
15900;DHT22;8048;50.644;6.184;2024-01-30T02:02:53;8.90;99.90
15900;DHT22;8048;50.644;6.184;2024-01-30T02:05:20;8.80;99.90
15900;DHT22;8048;50.644;6.184;2024-01-30T02:07:46;8.80;99.90
15900;DHT22;8048;50.644;6.184;2024-01-30T02:10:12;8.80;99.90
15900;DHT22;8048;50.644;6.184;2024-01-30T02:12:38;8.80;99.90
15900;DHT22;8048;50.644;6.184;2024-01-30T02:15:04;8.80;99.90
15900;DHT22;8048;50.644;6.184;2024-01-30T02:17:30;8.90;99.90
15900;DHT22;8048;50.644;6.184;2024-01-30T02:19:56;8.90;99.90
15900;DHT22;8048;50.644;6.184;2024-01-30T02:22:22;8.80;99.90
15900;DHT22;8048;50.644;6.184;2024-01-30T02:24:49;8.80;99.90
15900;DHT22;8048;50.644;6.184;2024-01-30T02:27:14;8.80;99.90
15900;DHT22;8048;50.644;6.184;2024-01-30T02:29:40;8.80;99.90
15900;DHT22;8048;50.644;6.184;2024-01-30T02:32:06;8.80;99.90
15900;DHT22;8048;50.644;6.184;2024-01-30T02:34:33;8.80;99.90
15900;DHT22;8048;50.644;6.184;2024-01-30T02:36:58;8.70;99.90
15900;DHT22;8048;50.644;6.184;2024-01-30T02:39:24;8.60;99.90
15900;DHT22;8048;50.644;6.184;2024-01-30T02:41:49;8.60;99.90
15900;DHT22;8048;50.644;6.184;2024-01-30T02:44:15;8.60;99.90
15900;DHT22;8048;50.644;6.184;2024-01-30T02:46:40;8.60;99.90
15900;DHT22;8048;50.644;6.184;2024-01-30T02:49:06;8.60;99.90
15900;DHT22;8048;50.644;6.184;2024-01-30T02:51:31;8.60;99.90
15900;DHT22;8048;50.644;6.184;2024-01-30T02:53:57;8.70;99.90
15900;DHT22;8048;50.644;6.184;2024-01-30T02:56:22;8.70;99.90
15900;DHT22;8048;50.644;6.184;2024-01-30T02:58:48;8.80;99.90
15900;DHT22;8048;50.644;6.184;2024-01-30T03:01:13;8.80;99.90
15900;DHT22;8048;50.644;6.184;2024-01-30T03:03:39;8.70;99.90
15900;DHT22;8048;50.644;6.184;2024-01-30T03:06:06;8.80;99.90
15900;DHT22;8048;50.644;6.184;2024-01-30T03:08:32;8.80;99.90
15900;DHT22;8048;50.644;6.184;2024-01-30T03:11:00;8.70;99.90
15900;DHT22;8048;50.644;6.184;2024-01-30T03:13:25;8.80;99.90
15900;DHT22;8048;50.644;6.184;2024-01-30T03:15:51;8.80;99.90
15900;DHT22;8048;50.644;6.184;2024-01-30T03:18:16;8.80;99.90
15900;DHT22;8048;50.644;6.184;2024-01-30T03:20:42;8.70;99.90
15900;DHT22;8048;50.644;6.184;2024-01-30T03:23:07;8.70;99.90
15900;DHT22;8048;50.644;6.184;2024-01-30T03:25:33;8.70;99.90
15900;DHT22;8048;50.644;6.184;2024-01-30T03:27:58;8.70;99.90
15900;DHT22;8048;50.644;6.184;2024-01-30T03:30:24;8.60;99.90
15900;DHT22;8048;50.644;6.184;2024-01-30T03:32:49;8.60;99.90
15900;DHT22;8048;50.644;6.184;2024-01-30T03:35:15;8.60;99.90
15900;DHT22;8048;50.644;6.184;2024-01-30T03:37:41;8.70;99.90
15900;DHT22;8048;50.644;6.184;2024-01-30T03:40:07;8.70;99.90
15900;DHT22;8048;50.644;6.184;2024-01-30T03:42:32;8.60;99.90
15900;DHT22;8048;50.644;6.184;2024-01-30T03:44:58;8.60;99.90
15900;DHT22;8048;50.644;6.184;2024-01-30T03:47:23;8.70;99.90
15900;DHT22;8048;50.644;6.184;2024-01-30T03:49:49;8.70;99.90
15900;DHT22;8048;50.644;6.184;2024-01-30T03:52:14;8.70;99.90
15900;DHT22;8048;50.644;6.184;2024-01-30T03:54:40;8.70;99.90
15900;DHT22;8048;50.644;6.184;2024-01-30T03:57:05;8.70;99.90
15900;DHT22;8048;50.644;6.184;2024-01-30T03:59:31;8.60;99.90
15900;DHT22;8048;50.644;6.184;2024-01-30T04:01:56;8.60;99.90
15900;DHT22;8048;50.644;6.184;2024-01-30T04:04:22;8.50;99.90
15900;DHT22;8048;50.644;6.184;2024-01-30T04:06:48;8.50;99.90
15900;DHT22;8048;50.644;6.184;2024-01-30T04:09:14;8.40;99.90
15900;DHT22;8048;50.644;6.184;2024-01-30T04:11:40;8.30;99.90
15900;DHT22;8048;50.644;6.184;2024-01-30T04:14:05;8.30;99.90
15900;DHT22;8048;50.644;6.184;2024-01-30T04:16:31;8.40;99.90
15900;DHT22;8048;50.644;6.184;2024-01-30T04:18:57;8.40;99.90
15900;DHT22;8048;50.644;6.184;2024-01-30T04:21:23;8.40;99.90
15900;DHT22;8048;50.644;6.184;2024-01-30T04:23:48;8.40;99.90
15900;DHT22;8048;50.644;6.184;2024-01-30T04:26:14;8.50;99.90
15900;DHT22;8048;50.644;6.184;2024-01-30T04:28:44;8.50;99.90
15900;DHT22;8048;50.644;6.184;2024-01-30T04:31:10;8.50;99.90
15900;DHT22;8048;50.644;6.184;2024-01-30T04:33:36;8.60;99.90
15900;DHT22;8048;50.644;6.184;2024-01-30T04:36:02;8.70;99.90
15900;DHT22;8048;50.644;6.184;2024-01-30T04:38:28;8.80;99.90
15900;DHT22;8048;50.644;6.184;2024-01-30T04:40:54;8.70;99.90
15900;DHT22;8048;50.644;6.184;2024-01-30T04:43:19;8.70;99.90
15900;DHT22;8048;50.644;6.184;2024-01-30T04:45:45;8.70;99.90
15900;DHT22;8048;50.644;6.184;2024-01-30T04:48:10;8.70;99.90
15900;DHT22;8048;50.644;6.184;2024-01-30T04:50:36;8.60;99.90
15900;DHT22;8048;50.644;6.184;2024-01-30T04:53:02;8.60;99.90
15900;DHT22;8048;50.644;6.184;2024-01-30T04:55:27;8.60;99.90
15900;DHT22;8048;50.644;6.184;2024-01-30T04:57:53;8.60;99.90
15900;DHT22;8048;50.644;6.184;2024-01-30T05:00:18;8.60;99.90
15900;DHT22;8048;50.644;6.184;2024-01-30T05:02:44;8.60;99.90
15900;DHT22;8048;50.644;6.184;2024-01-30T05:05:09;8.60;99.90
15900;DHT22;8048;50.644;6.184;2024-01-30T05:07:36;8.60;99.90
15900;DHT22;8048;50.644;6.184;2024-01-30T05:10:02;8.60;99.90
15900;DHT22;8048;50.644;6.184;2024-01-30T05:12:28;8.60;99.90
15900;DHT22;8048;50.644;6.184;2024-01-30T05:14:54;8.50;99.90
15900;DHT22;8048;50.644;6.184;2024-01-30T05:17:19;8.50;99.90
15900;DHT22;8048;50.644;6.184;2024-01-30T05:19:45;8.50;99.90
15900;DHT22;8048;50.644;6.184;2024-01-30T05:22:10;8.60;99.90
15900;DHT22;8048;50.644;6.184;2024-01-30T05:24:36;8.60;99.90
15900;DHT22;8048;50.644;6.184;2024-01-30T05:27:02;8.60;99.90
15900;DHT22;8048;50.644;6.184;2024-01-30T05:29:27;8.50;99.90
15900;DHT22;8048;50.644;6.184;2024-01-30T05:31:53;8.60;99.90
15900;DHT22;8048;50.644;6.184;2024-01-30T05:34:19;8.60;99.90
15900;DHT22;8048;50.644;6.184;2024-01-30T05:36:44;8.60;99.90
15900;DHT22;8048;50.644;6.184;2024-01-30T05:39:10;8.50;99.90
15900;DHT22;8048;50.644;6.184;2024-01-30T05:41:36;8.50;99.90
15900;DHT22;8048;50.644;6.184;2024-01-30T05:44:01;8.50;99.90
15900;DHT22;8048;50.644;6.184;2024-01-30T05:46:27;8.50;99.90
15900;DHT22;8048;50.644;6.184;2024-01-30T05:48:52;8.50;99.90
15900;DHT22;8048;50.644;6.184;2024-01-30T05:51:18;8.50;99.90
15900;DHT22;8048;50.644;6.184;2024-01-30T05:53:43;8.40;99.90
15900;DHT22;8048;50.644;6.184;2024-01-30T05:56:09;8.40;99.90
15900;DHT22;8048;50.644;6.184;2024-01-30T05:58:35;8.50;99.90
15900;DHT22;8048;50.644;6.184;2024-01-30T06:01:00;8.50;99.90
15900;DHT22;8048;50.644;6.184;2024-01-30T06:03:26;8.40;99.90
15900;DHT22;8048;50.644;6.184;2024-01-30T06:05:51;8.40;99.90
15900;DHT22;8048;50.644;6.184;2024-01-30T06:08:17;8.50;99.90
15900;DHT22;8048;50.644;6.184;2024-01-30T06:10:43;8.60;99.90
15900;DHT22;8048;50.644;6.184;2024-01-30T06:13:08;8.80;99.90
15900;DHT22;8048;50.644;6.184;2024-01-30T06:15:34;8.90;99.90
15900;DHT22;8048;50.644;6.184;2024-01-30T06:17:59;8.90;99.90
15900;DHT22;8048;50.644;6.184;2024-01-30T06:20:25;8.80;99.90
15900;DHT22;8048;50.644;6.184;2024-01-30T06:22:51;8.80;99.90
15900;DHT22;8048;50.644;6.184;2024-01-30T06:25:16;8.80;99.90
15900;DHT22;8048;50.644;6.184;2024-01-30T06:27:42;8.90;99.90
15900;DHT22;8048;50.644;6.184;2024-01-30T06:30:08;8.90;99.90
15900;DHT22;8048;50.644;6.184;2024-01-30T06:32:35;8.90;99.90
15900;DHT22;8048;50.644;6.184;2024-01-30T06:35:01;8.90;99.90
15900;DHT22;8048;50.644;6.184;2024-01-30T06:37:27;8.90;99.90
15900;DHT22;8048;50.644;6.184;2024-01-30T06:39:52;8.90;99.90
15900;DHT22;8048;50.644;6.184;2024-01-30T06:42:18;8.80;99.90
15900;DHT22;8048;50.644;6.184;2024-01-30T06:44:44;8.90;99.90
15900;DHT22;8048;50.644;6.184;2024-01-30T06:47:10;8.90;99.90
15900;DHT22;8048;50.644;6.184;2024-01-30T06:49:36;8.90;99.90
15900;DHT22;8048;50.644;6.184;2024-01-30T06:52:05;9.00;99.90
15900;DHT22;8048;50.644;6.184;2024-01-30T06:54:30;9.00;99.90
15900;DHT22;8048;50.644;6.184;2024-01-30T06:56:56;9.00;99.90
15900;DHT22;8048;50.644;6.184;2024-01-30T06:59:22;9.10;99.90
15900;DHT22;8048;50.644;6.184;2024-01-30T07:01:47;9.20;99.90
15900;DHT22;8048;50.644;6.184;2024-01-30T07:04:13;9.30;99.90
15900;DHT22;8048;50.644;6.184;2024-01-30T07:06:38;9.30;99.90
15900;DHT22;8048;50.644;6.184;2024-01-30T07:09:04;9.30;99.90
15900;DHT22;8048;50.644;6.184;2024-01-30T07:11:30;9.30;99.90
15900;DHT22;8048;50.644;6.184;2024-01-30T07:13:56;9.30;99.90
15900;DHT22;8048;50.644;6.184;2024-01-30T07:16:22;9.40;99.90
15900;DHT22;8048;50.644;6.184;2024-01-30T07:18:48;9.40;99.90
15900;DHT22;8048;50.644;6.184;2024-01-30T07:21:14;9.40;99.90
15900;DHT22;8048;50.644;6.184;2024-01-30T07:23:40;9.50;99.90
15900;DHT22;8048;50.644;6.184;2024-01-30T07:26:07;9.40;99.90
15900;DHT22;8048;50.644;6.184;2024-01-30T07:28:34;9.50;99.90
15900;DHT22;8048;50.644;6.184;2024-01-30T07:31:03;9.50;99.90
15900;DHT22;8048;50.644;6.184;2024-01-30T07:33:28;9.50;99.90
15900;DHT22;8048;50.644;6.184;2024-01-30T07:35:54;9.60;99.90
15900;DHT22;8048;50.644;6.184;2024-01-30T07:38:20;9.70;99.90
15900;DHT22;8048;50.644;6.184;2024-01-30T07:40:45;9.60;99.90
15900;DHT22;8048;50.644;6.184;2024-01-30T07:43:11;9.60;99.90
15900;DHT22;8048;50.644;6.184;2024-01-30T07:45:37;9.60;99.90
15900;DHT22;8048;50.644;6.184;2024-01-30T07:48:07;9.60;99.90
15900;DHT22;8048;50.644;6.184;2024-01-30T07:50:32;9.60;99.90
15900;DHT22;8048;50.644;6.184;2024-01-30T07:52:59;9.60;99.90
15900;DHT22;8048;50.644;6.184;2024-01-30T07:55:25;9.60;99.90
15900;DHT22;8048;50.644;6.184;2024-01-30T07:57:52;9.60;99.90
15900;DHT22;8048;50.644;6.184;2024-01-30T08:00:19;9.60;99.90
15900;DHT22;8048;50.644;6.184;2024-01-30T08:02:47;9.60;99.90
15900;DHT22;8048;50.644;6.184;2024-01-30T08:05:13;9.60;99.90
15900;DHT22;8048;50.644;6.184;2024-01-30T08:07:43;9.50;99.90
15900;DHT22;8048;50.644;6.184;2024-01-30T08:10:11;9.50;99.90
15900;DHT22;8048;50.644;6.184;2024-01-30T08:12:37;9.60;99.90
15900;DHT22;8048;50.644;6.184;2024-01-30T08:15:03;9.60;99.90
15900;DHT22;8048;50.644;6.184;2024-01-30T08:17:29;9.60;99.90
15900;DHT22;8048;50.644;6.184;2024-01-30T08:19:55;9.60;99.90
15900;DHT22;8048;50.644;6.184;2024-01-30T08:22:20;9.60;99.90
15900;DHT22;8048;50.644;6.184;2024-01-30T08:24:46;9.60;99.90
15900;DHT22;8048;50.644;6.184;2024-01-30T08:27:12;9.60;99.90
15900;DHT22;8048;50.644;6.184;2024-01-30T08:29:37;9.60;99.90
15900;DHT22;8048;50.644;6.184;2024-01-30T08:32:05;9.60;99.90
15900;DHT22;8048;50.644;6.184;2024-01-30T08:34:31;9.70;99.90
15900;DHT22;8048;50.644;6.184;2024-01-30T08:36:56;9.80;99.90
15900;DHT22;8048;50.644;6.184;2024-01-30T08:39:22;9.70;99.90
15900;DHT22;8048;50.644;6.184;2024-01-30T08:41:47;9.70;99.90
15900;DHT22;8048;50.644;6.184;2024-01-30T08:44:13;9.70;99.90
15900;DHT22;8048;50.644;6.184;2024-01-30T08:46:38;9.90;99.90
15900;DHT22;8048;50.644;6.184;2024-01-30T08:49:04;9.90;99.90
15900;DHT22;8048;50.644;6.184;2024-01-30T08:51:30;9.90;99.90
15900;DHT22;8048;50.644;6.184;2024-01-30T08:53:55;9.90;99.90
15900;DHT22;8048;50.644;6.184;2024-01-30T08:56:21;9.90;99.90
15900;DHT22;8048;50.644;6.184;2024-01-30T08:58:47;9.90;99.90
15900;DHT22;8048;50.644;6.184;2024-01-30T09:01:13;10.00;99.90
15900;DHT22;8048;50.644;6.184;2024-01-30T09:03:39;9.90;99.90
15900;DHT22;8048;50.644;6.184;2024-01-30T09:06:15;10.00;99.90
15900;DHT22;8048;50.644;6.184;2024-01-30T09:08:41;10.00;99.90
15900;DHT22;8048;50.644;6.184;2024-01-30T09:11:10;10.10;99.90
15900;DHT22;8048;50.644;6.184;2024-01-30T09:13:36;10.10;99.90
15900;DHT22;8048;50.644;6.184;2024-01-30T09:16:02;10.10;99.90
15900;DHT22;8048;50.644;6.184;2024-01-30T09:18:28;10.20;99.90
15900;DHT22;8048;50.644;6.184;2024-01-30T09:20:54;10.10;99.90
15900;DHT22;8048;50.644;6.184;2024-01-30T09:23:19;10.20;99.90
15900;DHT22;8048;50.644;6.184;2024-01-30T09:25:45;10.20;99.90
15900;DHT22;8048;50.644;6.184;2024-01-30T09:28:10;10.20;99.90
15900;DHT22;8048;50.644;6.184;2024-01-30T09:30:36;10.20;99.90
15900;DHT22;8048;50.644;6.184;2024-01-30T09:33:02;10.30;99.90
15900;DHT22;8048;50.644;6.184;2024-01-30T09:35:28;10.40;99.90
15900;DHT22;8048;50.644;6.184;2024-01-30T09:37:54;10.50;99.90
15900;DHT22;8048;50.644;6.184;2024-01-30T09:40:19;10.60;99.90
15900;DHT22;8048;50.644;6.184;2024-01-30T09:42:47;10.70;99.90
15900;DHT22;8048;50.644;6.184;2024-01-30T09:45:14;10.90;99.90
15900;DHT22;8048;50.644;6.184;2024-01-30T09:47:41;11.00;99.90
15900;DHT22;8048;50.644;6.184;2024-01-30T09:50:14;11.20;99.90
15900;DHT22;8048;50.644;6.184;2024-01-30T09:52:40;11.30;99.80
15900;DHT22;8048;50.644;6.184;2024-01-30T09:55:07;11.40;99.20
15900;DHT22;8048;50.644;6.184;2024-01-30T09:57:33;11.40;99.40
15900;DHT22;8048;50.644;6.184;2024-01-30T09:59:59;11.40;99.70
15900;DHT22;8048;50.644;6.184;2024-01-30T10:02:24;11.50;99.40
15900;DHT22;8048;50.644;6.184;2024-01-30T10:04:51;11.50;99.40
15900;DHT22;8048;50.644;6.184;2024-01-30T10:07:18;11.50;99.40
15900;DHT22;8048;50.644;6.184;2024-01-30T10:09:44;11.50;99.50
15900;DHT22;8048;50.644;6.184;2024-01-30T10:12:09;11.50;99.60
15900;DHT22;8048;50.644;6.184;2024-01-30T10:14:42;11.60;99.50
15900;DHT22;8048;50.644;6.184;2024-01-30T10:17:08;11.60;99.20
15900;DHT22;8048;50.644;6.184;2024-01-30T10:19:35;11.60;99.40
15900;DHT22;8048;50.644;6.184;2024-01-30T10:22:01;11.60;99.10
15900;DHT22;8048;50.644;6.184;2024-01-30T10:24:27;11.60;99.20
15900;DHT22;8048;50.644;6.184;2024-01-30T10:26:54;11.70;99.80
15900;DHT22;8048;50.644;6.184;2024-01-30T10:29:20;11.70;99.20
15900;DHT22;8048;50.644;6.184;2024-01-30T10:31:45;11.80;99.40
15900;DHT22;8048;50.644;6.184;2024-01-30T10:34:12;11.80;99.20
15900;DHT22;8048;50.644;6.184;2024-01-30T10:36:40;11.90;99.40
15900;DHT22;8048;50.644;6.184;2024-01-30T10:39:08;12.10;99.30
15900;DHT22;8048;50.644;6.184;2024-01-30T10:41:44;12.20;99.30
15900;DHT22;8048;50.644;6.184;2024-01-30T10:44:10;12.30;99.20
15900;DHT22;8048;50.644;6.184;2024-01-30T10:46:38;12.40;99.40
15900;DHT22;8048;50.644;6.184;2024-01-30T10:49:05;12.60;98.50
15900;DHT22;8048;50.644;6.184;2024-01-30T10:51:32;12.70;98.40
15900;DHT22;8048;50.644;6.184;2024-01-30T10:53:58;12.70;97.80
15900;DHT22;8048;50.644;6.184;2024-01-30T10:56:24;12.90;97.90
15900;DHT22;8048;50.644;6.184;2024-01-30T10:58:51;12.90;97.70
15900;DHT22;8048;50.644;6.184;2024-01-30T11:01:23;13.00;97.60
15900;DHT22;8048;50.644;6.184;2024-01-30T11:03:53;12.90;97.10
15900;DHT22;8048;50.644;6.184;2024-01-30T11:06:22;13.00;97.80
15900;DHT22;8048;50.644;6.184;2024-01-30T11:11:29;12.80;98.00
15900;DHT22;8048;50.644;6.184;2024-01-30T11:13:54;12.70;98.20
15900;DHT22;8048;50.644;6.184;2024-01-30T11:16:20;12.60;98.60
15900;DHT22;8048;50.644;6.184;2024-01-30T11:18:50;12.50;98.60
15900;DHT22;8048;50.644;6.184;2024-01-30T11:21:16;12.40;99.00
15900;DHT22;8048;50.644;6.184;2024-01-30T11:23:42;12.40;99.20
15900;DHT22;8048;50.644;6.184;2024-01-30T11:26:10;12.40;99.20
15900;DHT22;8048;50.644;6.184;2024-01-30T11:28:37;12.40;99.50
15900;DHT22;8048;50.644;6.184;2024-01-30T11:31:06;12.40;99.20
15900;DHT22;8048;50.644;6.184;2024-01-30T11:33:32;12.30;99.40
15900;DHT22;8048;50.644;6.184;2024-01-30T11:35:59;12.30;99.70
15900;DHT22;8048;50.644;6.184;2024-01-30T11:38:26;12.30;99.50
15900;DHT22;8048;50.644;6.184;2024-01-30T11:40:55;12.20;99.50
15900;DHT22;8048;50.644;6.184;2024-01-30T11:43:22;12.10;99.50
15900;DHT22;8048;50.644;6.184;2024-01-30T11:45:49;12.00;99.90
15900;DHT22;8048;50.644;6.184;2024-01-30T11:48:14;12.00;99.90
15900;DHT22;8048;50.644;6.184;2024-01-30T11:50:40;11.90;99.90
15900;DHT22;8048;50.644;6.184;2024-01-30T11:53:06;11.90;99.90
15900;DHT22;8048;50.644;6.184;2024-01-30T11:55:32;11.90;99.90
15900;DHT22;8048;50.644;6.184;2024-01-30T11:57:58;11.90;99.90
15900;DHT22;8048;50.644;6.184;2024-01-30T12:00:24;11.90;99.90
15900;DHT22;8048;50.644;6.184;2024-01-30T12:02:50;11.90;99.90
15900;DHT22;8048;50.644;6.184;2024-01-30T12:05:18;11.90;99.90
15900;DHT22;8048;50.644;6.184;2024-01-30T12:07:44;11.90;99.90
15900;DHT22;8048;50.644;6.184;2024-01-30T12:10:11;11.90;99.90
15900;DHT22;8048;50.644;6.184;2024-01-30T12:12:39;12.00;99.90
15900;DHT22;8048;50.644;6.184;2024-01-30T12:15:06;12.00;99.90
15900;DHT22;8048;50.644;6.184;2024-01-30T12:17:33;11.90;99.90
15900;DHT22;8048;50.644;6.184;2024-01-30T12:20:26;11.80;99.90
15900;DHT22;8048;50.644;6.184;2024-01-30T12:22:52;11.70;99.90
15900;DHT22;8048;50.644;6.184;2024-01-30T12:25:20;11.60;99.90
15900;DHT22;8048;50.644;6.184;2024-01-30T12:27:49;11.60;99.90
15900;DHT22;8048;50.644;6.184;2024-01-30T12:30:15;11.50;99.90
15900;DHT22;8048;50.644;6.184;2024-01-30T12:32:43;11.50;99.90
15900;DHT22;8048;50.644;6.184;2024-01-30T12:35:19;11.50;99.90
15900;DHT22;8048;50.644;6.184;2024-01-30T12:37:45;11.50;99.90
15900;DHT22;8048;50.644;6.184;2024-01-30T12:40:13;11.50;99.90
15900;DHT22;8048;50.644;6.184;2024-01-30T12:42:40;11.50;99.90
15900;DHT22;8048;50.644;6.184;2024-01-30T12:45:07;11.40;99.90
15900;DHT22;8048;50.644;6.184;2024-01-30T12:47:33;11.40;99.90
15900;DHT22;8048;50.644;6.184;2024-01-30T12:49:58;11.40;99.90
15900;DHT22;8048;50.644;6.184;2024-01-30T12:52:24;11.30;99.90
15900;DHT22;8048;50.644;6.184;2024-01-30T12:54:51;11.40;99.90
15900;DHT22;8048;50.644;6.184;2024-01-30T12:57:17;11.30;99.90
15900;DHT22;8048;50.644;6.184;2024-01-30T12:59:43;11.20;99.90
15900;DHT22;8048;50.644;6.184;2024-01-30T13:02:09;11.20;99.90
15900;DHT22;8048;50.644;6.184;2024-01-30T13:04:35;11.20;99.90
15900;DHT22;8048;50.644;6.184;2024-01-30T13:07:02;11.10;99.90
15900;DHT22;8048;50.644;6.184;2024-01-30T13:09:28;11.10;99.90
15900;DHT22;8048;50.644;6.184;2024-01-30T13:11:54;11.10;99.90
15900;DHT22;8048;50.644;6.184;2024-01-30T13:14:20;11.10;99.90
15900;DHT22;8048;50.644;6.184;2024-01-30T13:16:45;11.00;99.90
15900;DHT22;8048;50.644;6.184;2024-01-30T13:19:11;11.10;99.90
15900;DHT22;8048;50.644;6.184;2024-01-30T13:21:37;11.10;99.90
15900;DHT22;8048;50.644;6.184;2024-01-30T13:24:03;11.00;99.90
15900;DHT22;8048;50.644;6.184;2024-01-30T13:26:31;11.00;99.90
15900;DHT22;8048;50.644;6.184;2024-01-30T13:28:57;10.80;99.90
15900;DHT22;8048;50.644;6.184;2024-01-30T13:31:23;10.80;99.90
15900;DHT22;8048;50.644;6.184;2024-01-30T13:33:48;10.80;99.90
15900;DHT22;8048;50.644;6.184;2024-01-30T13:36:14;10.80;99.90
15900;DHT22;8048;50.644;6.184;2024-01-30T13:38:40;10.70;99.90
15900;DHT22;8048;50.644;6.184;2024-01-30T13:41:05;10.70;99.90
15900;DHT22;8048;50.644;6.184;2024-01-30T13:43:31;10.70;99.90
15900;DHT22;8048;50.644;6.184;2024-01-30T13:45:57;10.70;99.90
15900;DHT22;8048;50.644;6.184;2024-01-30T13:48:23;10.60;99.90
15900;DHT22;8048;50.644;6.184;2024-01-30T13:50:48;10.60;99.90
15900;DHT22;8048;50.644;6.184;2024-01-30T13:53:14;10.60;99.90
15900;DHT22;8048;50.644;6.184;2024-01-30T13:55:40;10.60;99.90
15900;DHT22;8048;50.644;6.184;2024-01-30T13:58:06;10.50;99.90
15900;DHT22;8048;50.644;6.184;2024-01-30T14:00:33;10.50;99.90
15900;DHT22;8048;50.644;6.184;2024-01-30T14:02:59;10.50;99.90
15900;DHT22;8048;50.644;6.184;2024-01-30T14:05:24;10.50;99.90
15900;DHT22;8048;50.644;6.184;2024-01-30T14:07:51;10.40;99.90
15900;DHT22;8048;50.644;6.184;2024-01-30T14:10:17;10.40;99.90
15900;DHT22;8048;50.644;6.184;2024-01-30T14:12:43;10.40;99.90
15900;DHT22;8048;50.644;6.184;2024-01-30T14:15:10;10.40;99.90
15900;DHT22;8048;50.644;6.184;2024-01-30T14:17:36;10.40;99.90
15900;DHT22;8048;50.644;6.184;2024-01-30T14:20:06;10.40;99.90
15900;DHT22;8048;50.644;6.184;2024-01-30T14:22:33;10.50;99.90
15900;DHT22;8048;50.644;6.184;2024-01-30T14:24:59;10.50;99.90
15900;DHT22;8048;50.644;6.184;2024-01-30T14:27:24;10.50;99.90
15900;DHT22;8048;50.644;6.184;2024-01-30T14:29:50;10.40;99.90
15900;DHT22;8048;50.644;6.184;2024-01-30T14:32:15;10.40;99.90
15900;DHT22;8048;50.644;6.184;2024-01-30T14:34:41;10.40;99.90
15900;DHT22;8048;50.644;6.184;2024-01-30T14:37:07;10.30;99.90
15900;DHT22;8048;50.644;6.184;2024-01-30T14:39:32;10.30;99.90
15900;DHT22;8048;50.644;6.184;2024-01-30T14:41:59;10.40;99.90
15900;DHT22;8048;50.644;6.184;2024-01-30T14:44:25;10.40;99.90
15900;DHT22;8048;50.644;6.184;2024-01-30T14:46:50;10.30;99.90
15900;DHT22;8048;50.644;6.184;2024-01-30T14:49:16;10.30;99.90
15900;DHT22;8048;50.644;6.184;2024-01-30T14:51:42;10.30;99.90
15900;DHT22;8048;50.644;6.184;2024-01-30T14:54:08;10.30;99.90
15900;DHT22;8048;50.644;6.184;2024-01-30T14:56:34;10.30;99.90
15900;DHT22;8048;50.644;6.184;2024-01-30T14:59:00;10.30;99.90
15900;DHT22;8048;50.644;6.184;2024-01-30T15:01:25;10.30;99.90
15900;DHT22;8048;50.644;6.184;2024-01-30T15:03:51;10.30;99.90
15900;DHT22;8048;50.644;6.184;2024-01-30T15:06:17;10.20;99.90
15900;DHT22;8048;50.644;6.184;2024-01-30T15:08:43;10.30;99.90
15900;DHT22;8048;50.644;6.184;2024-01-30T15:11:09;10.20;99.90
15900;DHT22;8048;50.644;6.184;2024-01-30T15:13:34;10.20;99.90
15900;DHT22;8048;50.644;6.184;2024-01-30T15:16:00;10.20;99.90
15900;DHT22;8048;50.644;6.184;2024-01-30T15:18:28;10.10;99.90
15900;DHT22;8048;50.644;6.184;2024-01-30T15:20:53;10.10;99.90
15900;DHT22;8048;50.644;6.184;2024-01-30T15:23:19;10.10;99.90
15900;DHT22;8048;50.644;6.184;2024-01-30T15:25:44;10.10;99.90
15900;DHT22;8048;50.644;6.184;2024-01-30T15:28:10;10.10;99.90
15900;DHT22;8048;50.644;6.184;2024-01-30T15:30:36;10.00;99.90
15900;DHT22;8048;50.644;6.184;2024-01-30T15:33:01;10.10;99.90
15900;DHT22;8048;50.644;6.184;2024-01-30T15:35:27;10.00;99.90
15900;DHT22;8048;50.644;6.184;2024-01-30T15:37:52;10.00;99.90
15900;DHT22;8048;50.644;6.184;2024-01-30T15:40:18;10.00;99.90
15900;DHT22;8048;50.644;6.184;2024-01-30T15:42:44;10.00;99.90
15900;DHT22;8048;50.644;6.184;2024-01-30T15:45:09;9.90;99.90
15900;DHT22;8048;50.644;6.184;2024-01-30T15:47:35;9.80;99.90
15900;DHT22;8048;50.644;6.184;2024-01-30T15:50:02;9.80;99.90